Time;durP1;ratioP1;P1;durP2;ratioP2;P2;SDS_P1;SDS_P2;PMS_P1;PMS_P2;Temp;Humidity;BMP_temperature;BMP_pressure;BME280_temperature;BME280_humidity;BME280_pressure;Samples;Min_cycle;Max_cycle;Signal;HPM_P1;HPM_P2
2023/08/18 00:01:40;;;;;;;1.33;1.33;;;23.20;78.50;;;;;;5025552;28;20403;-77
2023/08/18 00:04:06;;;;;;;1.60;1.60;;;23.20;78.40;;;;;;5023657;28;20119;-77
2023/08/18 00:06:31;;;;;;;1.80;1.70;;;23.10;78.30;;;;;;5022473;28;20038;-78
2023/08/18 00:08:57;;;;;;;1.60;1.50;;;23.20;78.40;;;;;;5026387;28;20281;-77
2023/08/18 00:11:22;;;;;;;1.38;1.38;;;23.20;78.40;;;;;;5024211;28;20032;-77
2023/08/18 00:13:48;;;;;;;1.33;1.23;;;23.20;78.40;;;;;;5025136;28;20522;-78
2023/08/18 00:16:14;;;;;;;1.48;1.38;;;23.20;78.40;;;;;;5022504;28;20399;-77
2023/08/18 00:18:40;;;;;;;1.30;1.30;;;23.10;78.30;;;;;;5023460;28;20125;-77
2023/08/18 00:21:06;;;;;;;1.45;1.35;;;23.20;78.40;;;;;;5025477;28;20026;-78
2023/08/18 00:23:32;;;;;;;1.50;1.40;;;23.10;78.50;;;;;;5023299;28;20432;-78
2023/08/18 00:25:58;;;;;;;1.15;1.15;;;23.20;78.40;;;;;;5025058;28;20116;-77
2023/08/18 00:28:23;;;;;;;1.58;1.58;;;23.20;78.50;;;;;;5023963;28;20511;-78
2023/08/18 00:30:49;;;;;;;1.25;1.25;;;23.10;78.50;;;;;;5024868;28;20573;-78
2023/08/18 00:33:14;;;;;;;1.38;1.38;;;23.20;78.50;;;;;;5024714;28;20052;-77
2023/08/18 00:35:40;;;;;;;1.90;1.80;;;23.20;78.60;;;;;;5022187;28;20116;-77
2023/08/18 00:38:05;;;;;;;1.50;1.50;;;23.10;78.60;;;;;;5022969;28;20029;-77
2023/08/18 00:40:31;;;;;;;1.70;1.60;;;23.20;79.30;;;;;;5024756;28;20049;-77
2023/08/18 00:42:57;;;;;;;1.40;1.40;;;23.10;78.50;;;;;;5024378;28;20091;-77
2023/08/18 00:45:22;;;;;;;1.50;1.40;;;23.10;78.40;;;;;;5024427;28;20483;-76
2023/08/18 00:47:48;;;;;;;1.40;1.40;;;23.10;78.40;;;;;;5019813;28;20045;-77
2023/08/18 00:50:15;;;;;;;1.42;1.30;;;23.10;78.40;;;;;;5004685;28;20048;-77
2023/08/18 00:52:40;;;;;;;1.70;1.60;;;23.10;78.40;;;;;;5022623;28;20042;-76
2023/08/18 00:55:07;;;;;;;1.80;1.70;;;23.10;78.40;;;;;;5024034;28;20033;-76
2023/08/18 00:57:33;;;;;;;1.40;1.40;;;23.10;78.50;;;;;;5022869;28;20061;-76
2023/08/18 00:59:58;;;;;;;1.65;1.55;;;23.20;78.40;;;;;;5027111;28;20557;-76
2023/08/18 01:02:24;;;;;;;1.55;1.45;;;23.10;78.50;;;;;;5025925;28;20068;-77
2023/08/18 01:04:50;;;;;;;1.85;1.75;;;23.10;78.60;;;;;;5026743;28;20040;-77
2023/08/18 01:07:15;;;;;;;1.77;1.67;;;23.10;78.50;;;;;;5010423;28;20064;-76
2023/08/18 01:09:41;;;;;;;1.40;1.40;;;23.10;78.60;;;;;;5011769;28;20095;-77
2023/08/18 01:12:20;;;;;;;1.45;1.40;;;23.10;78.50;;;;;;5012064;28;20499;-77
2023/08/18 01:14:51;;;;;;;1.55;1.50;;;23.10;78.50;;;;;;5026397;28;20045;-77
2023/08/18 01:17:48;;;;;;;1.92;1.83;;;23.10;78.50;;;;;;5025967;28;20099;-77
2023/08/18 01:20:14;;;;;;;1.88;1.77;;;23.10;78.40;;;;;;5014597;28;20091;-77
2023/08/18 01:22:40;;;;;;;1.42;1.40;;;23.10;78.40;;;;;;5025530;28;20228;-77
2023/08/18 01:25:06;;;;;;;1.70;1.60;;;23.10;78.50;;;;;;5024785;28;20038;-76
2023/08/18 01:27:31;;;;;;;1.85;1.70;;;23.10;78.50;;;;;;5027873;28;20042;-77
2023/08/18 01:29:58;;;;;;;1.55;1.55;;;23.10;78.50;;;;;;5028388;28;20573;-77
2023/08/18 01:32:25;;;;;;;1.45;1.45;;;23.10;79.20;;;;;;5025783;28;20057;-77
2023/08/18 01:34:50;;;;;;;1.60;1.60;;;23.10;78.30;;;;;;5024175;28;20038;-77
2023/08/18 01:37:16;;;;;;;1.38;1.38;;;23.10;78.50;;;;;;5025109;28;20099;-77
2023/08/18 01:39:41;;;;;;;1.52;1.40;;;23.10;78.50;;;;;;5010364;28;20052;-77
2023/08/18 01:42:07;;;;;;;1.77;1.67;;;23.10;78.50;;;;;;5028301;28;20069;-77
2023/08/18 01:44:32;;;;;;;1.42;1.42;;;23.00;78.40;;;;;;4990393;28;20042;-77
2023/08/18 01:46:58;;;;;;;1.63;1.52;;;23.10;78.40;;;;;;5025921;28;20041;-77
2023/08/18 01:49:23;;;;;;;1.35;1.35;;;23.10;78.30;;;;;;5025574;28;20542;-77
2023/08/18 01:51:49;;;;;;;1.67;1.27;;;23.10;78.40;;;;;;5027866;28;20037;-77
2023/08/18 01:54:14;;;;;;;1.42;1.40;;;23.10;78.40;;;;;;5027253;28;20483;-76
2023/08/18 01:56:40;;;;;;;1.55;1.45;;;23.10;78.30;;;;;;5027518;28;20105;-77
2023/08/18 01:59:05;;;;;;;1.40;1.40;;;23.10;78.50;;;;;;5025671;28;20046;-76
2023/08/18 02:01:31;;;;;;;1.52;1.52;;;23.10;78.30;;;;;;5027810;28;20052;-76
2023/08/18 02:03:57;;;;;;;1.35;1.35;;;23.10;78.40;;;;;;5026053;28;20049;-76
2023/08/18 02:06:22;;;;;;;1.25;1.25;;;23.10;78.60;;;;;;5027146;28;20051;-77
2023/08/18 02:08:48;;;;;;;1.30;1.30;;;23.10;78.50;;;;;;5023932;28;20065;-77
2023/08/18 02:11:14;;;;;;;1.30;1.30;;;23.00;78.30;;;;;;5024917;28;20045;-77
2023/08/18 02:13:39;;;;;;;2.25;1.30;;;23.10;78.40;;;;;;5026035;28;20135;-77
2023/08/18 02:16:05;;;;;;;1.23;1.23;;;23.10;79.20;;;;;;5025675;28;20041;-77
2023/08/18 02:18:32;;;;;;;1.10;1.10;;;23.00;78.20;;;;;;5026777;28;20042;-77
2023/08/18 02:20:58;;;;;;;1.40;1.30;;;23.10;78.40;;;;;;5027373;28;20045;-77
2023/08/18 02:23:24;;;;;;;1.20;1.20;;;23.00;78.30;;;;;;5025176;28;20380;-76
2023/08/18 02:25:50;;;;;;;1.48;1.38;;;23.10;78.30;;;;;;5026469;28;20095;-77
2023/08/18 02:28:17;;;;;;;1.30;1.20;;;23.00;78.30;;;;;;5026732;28;20041;-77
2023/08/18 02:30:43;;;;;;;1.50;1.40;;;23.00;78.40;;;;;;5025759;28;20273;-77
2023/08/18 02:33:09;;;;;;;1.67;1.58;;;23.10;78.50;;;;;;5027644;28;20125;-77
2023/08/18 02:35:35;;;;;;;1.15;1.15;;;23.00;78.40;;;;;;5024590;28;20121;-76
2023/08/18 02:38:00;;;;;;;1.50;1.50;;;23.00;78.40;;;;;;5026363;28;20042;-77
2023/08/18 02:40:26;;;;;;;1.27;1.17;;;23.00;78.40;;;;;;5024212;28;20515;-77
2023/08/18 02:42:51;;;;;;;1.25;1.25;;;23.10;78.40;;;;;;5026718;28;20072;-77
2023/08/18 02:45:17;;;;;;;1.23;1.23;;;23.10;78.50;;;;;;5025431;28;20037;-77
2023/08/18 02:47:42;;;;;;;1.95;1.13;;;23.00;78.40;;;;;;5024923;28;20049;-77
2023/08/18 02:50:08;;;;;;;1.40;1.40;;;23.10;78.50;;;;;;5025665;28;20053;-77
2023/08/18 02:52:33;;;;;;;1.20;1.20;;;23.10;78.50;;;;;;5026257;28;20056;-76
2023/08/18 02:54:59;;;;;;;1.27;1.27;;;23.00;78.40;;;;;;5027193;28;20120;-76
2023/08/18 02:57:24;;;;;;;1.00;1.00;;;23.10;78.50;;;;;;5026380;28;20474;-77
2023/08/18 02:59:50;;;;;;;1.10;1.10;;;23.00;78.60;;;;;;5025675;28;20411;-77
2023/08/18 03:02:16;;;;;;;1.10;1.10;;;23.10;78.60;;;;;;5024118;28;20055;-77
2023/08/18 03:04:41;;;;;;;1.20;1.10;;;23.10;78.60;;;;;;5025813;28;20041;-77
2023/08/18 03:07:07;;;;;;;1.23;1.23;;;23.00;78.60;;;;;;5024854;28;20042;-76
2023/08/18 03:09:32;;;;;;;1.30;1.30;;;23.00;78.60;;;;;;5023768;28;20052;-76
2023/08/18 03:11:58;;;;;;;1.17;1.17;;;23.00;78.60;;;;;;5026009;28;20377;-77
2023/08/18 03:14:23;;;;;;;1.40;1.30;;;23.10;78.50;;;;;;5024381;28;20099;-77
2023/08/18 03:16:49;;;;;;;1.40;1.30;;;23.00;78.50;;;;;;5026295;28;20049;-77
2023/08/18 03:19:14;;;;;;;1.95;1.15;;;23.10;78.70;;;;;;5021087;28;20629;-77
2023/08/18 03:21:40;;;;;;;1.48;1.48;;;23.00;78.60;;;;;;5025044;28;20093;-76
2023/08/18 03:24:06;;;;;;;1.45;1.35;;;23.00;78.60;;;;;;5026814;28;20053;-77
2023/08/18 03:26:31;;;;;;;1.27;1.17;;;23.00;78.60;;;;;;5024032;28;20140;-77
2023/08/18 03:28:57;;;;;;;1.60;1.20;;;23.00;78.60;;;;;;5027048;28;20446;-77
2023/08/18 03:31:22;;;;;;;1.27;1.27;;;23.00;79.40;;;;;;5024751;28;20041;-77
2023/08/18 03:33:48;;;;;;;1.25;1.25;;;23.10;78.60;;;;;;5025504;28;20056;-77
2023/08/18 03:36:13;;;;;;;1.27;1.27;;;23.10;78.60;;;;;;5025725;28;20041;-77
2023/08/18 03:38:39;;;;;;;1.10;1.10;;;23.00;78.60;;;;;;5024594;28;20059;-77
2023/08/18 03:41:05;;;;;;;1.25;1.25;;;23.00;78.70;;;;;;5025593;28;20510;-77
2023/08/18 03:43:32;;;;;;;1.20;1.20;;;23.00;78.70;;;;;;5023286;28;20049;-76
2023/08/18 03:46:10;;;;;;;1.17;1.08;;;23.00;78.70;;;;;;5024763;28;20049;-77
2023/08/18 03:48:35;;;;;;;1.20;1.20;;;23.00;78.70;;;;;;4997349;28;20098;-77
2023/08/18 03:51:01;;;;;;;1.52;1.42;;;23.00;78.60;;;;;;5026673;28;20053;-77
2023/08/18 03:53:27;;;;;;;1.35;1.25;;;23.00;78.70;;;;;;5023956;28;20067;-77
2023/08/18 03:55:53;;;;;;;1.50;1.38;;;23.00;78.80;;;;;;5025416;28;20423;-77
2023/08/18 03:58:18;;;;;;;1.20;1.20;;;23.00;78.90;;;;;;5023876;28;20068;-76
2023/08/18 04:00:44;;;;;;;1.33;1.33;;;23.00;78.80;;;;;;5024098;28;20129;-77
2023/08/18 04:03:09;;;;;;;1.20;1.20;;;23.00;78.70;;;;;;5025061;28;20141;-76
2023/08/18 04:05:36;;;;;;;1.60;1.50;;;23.00;78.70;;;;;;5020007;28;20038;-77
2023/08/18 04:08:02;;;;;;;1.27;1.27;;;23.00;78.60;;;;;;5025180;28;20045;-77
2023/08/18 04:10:27;;;;;;;1.27;1.27;;;23.00;78.70;;;;;;5022639;28;20037;-77
2023/08/18 04:12:53;;;;;;;1.27;1.17;;;23.00;78.70;;;;;;5024997;28;20053;-77
2023/08/18 04:15:18;;;;;;;1.00;1.00;;;23.00;78.60;;;;;;5024331;28;20044;-77
2023/08/18 04:17:44;;;;;;;1.30;1.20;;;23.00;78.70;;;;;;5023450;28;20081;-77
2023/08/18 04:20:10;;;;;;;1.02;1.02;;;23.00;78.70;;;;;;5022351;28;20063;-77
2023/08/18 04:22:36;;;;;;;1.10;1.10;;;23.00;78.80;;;;;;5024116;28;20066;-77
2023/08/18 04:25:01;;;;;;;1.27;1.27;;;23.00;78.70;;;;;;5024402;28;20107;-77
2023/08/18 04:27:27;;;;;;;1.35;1.30;;;23.00;78.70;;;;;;5024078;28;20038;-77
2023/08/18 04:29:54;;;;;;;1.70;1.60;;;23.00;78.80;;;;;;5024963;28;20068;-77
2023/08/18 04:32:19;;;;;;;1.27;1.17;;;23.00;78.80;;;;;;5022178;28;20117;-77
2023/08/18 04:34:45;;;;;;;1.33;1.30;;;23.00;78.80;;;;;;5028282;28;20129;-77
2023/08/18 04:37:10;;;;;;;1.15;1.15;;;23.00;78.70;;;;;;5028935;28;20029;-77
2023/08/18 04:39:36;;;;;;;1.30;1.20;;;23.00;78.60;;;;;;5027221;28;20507;-77
2023/08/18 04:42:01;;;;;;;1.20;1.20;;;23.00;78.70;;;;;;5030248;28;20376;-77
2023/08/18 04:44:27;;;;;;;1.40;1.40;;;23.00;78.60;;;;;;5027857;28;20419;-77
2023/08/18 04:46:52;;;;;;;1.42;1.33;;;23.00;78.60;;;;;;5026199;28;20043;-77
2023/08/18 04:49:18;;;;;;;1.92;1.17;;;23.00;78.60;;;;;;5028242;28;20057;-76
2023/08/18 04:51:43;;;;;;;1.27;1.27;;;23.00;78.70;;;;;;5028643;28;20056;-77
2023/08/18 04:54:11;;;;;;;1.23;1.23;;;23.00;78.50;;;;;;5029897;28;20052;-77
2023/08/18 04:56:37;;;;;;;1.10;1.10;;;23.00;78.50;;;;;;5026487;28;20034;-76
2023/08/18 04:59:03;;;;;;;1.40;1.30;;;23.00;78.50;;;;;;5027800;28;20053;-77
2023/08/18 05:01:29;;;;;;;1.13;1.13;;;23.00;78.60;;;;;;5027167;28;20408;-77
2023/08/18 05:03:54;;;;;;;1.15;1.15;;;23.00;79.30;;;;;;5027361;28;20053;-77
2023/08/18 05:06:20;;;;;;;1.20;1.20;;;23.00;79.40;;;;;;5028883;28;20537;-76
2023/08/18 05:08:45;;;;;;;1.17;1.10;;;23.00;78.60;;;;;;5027456;28;20506;-77
2023/08/18 05:11:11;;;;;;;1.00;1.00;;;23.00;78.60;;;;;;5027333;28;20056;-76
2023/08/18 05:13:38;;;;;;;1.02;1.02;;;23.00;78.50;;;;;;5010781;28;20048;-77
2023/08/18 05:16:03;;;;;;;0.75;0.75;;;23.00;78.50;;;;;;5025335;28;20110;-78
2023/08/18 05:18:29;;;;;;;1.00;1.00;;;23.00;78.60;;;;;;5010144;28;20053;-77
2023/08/18 05:20:58;;;;;;;2.20;1.60;;;23.00;78.60;;;;;;5026226;28;20111;-77
2023/08/18 05:23:24;;;;;;;2.88;2.50;;;23.00;79.90;;;;;;5027073;28;20547;-77
2023/08/18 05:25:54;;;;;;;2.63;2.42;;;23.10;81.70;;;;;;5027622;28;20054;-77
2023/08/18 05:28:19;;;;;;;2.85;2.75;;;23.00;83.10;;;;;;4991849;28;20049;-77
2023/08/18 05:30:46;;;;;;;2.83;2.72;;;22.90;84.40;;;;;;5028502;28;20488;-77
2023/08/18 05:33:11;;;;;;;2.55;2.45;;;22.90;84.20;;;;;;5027908;28;20037;-77
2023/08/18 05:35:37;;;;;;;2.70;2.60;;;22.90;84.80;;;;;;5023602;28;20260;-77
2023/08/18 05:38:04;;;;;;;3.03;2.83;;;22.90;85.00;;;;;;4659258;28;10000005;-77
2023/08/18 05:40:29;;;;;;;2.85;2.67;;;22.90;84.70;;;;;;5021454;28;20099;-77
2023/08/18 05:42:55;;;;;;;3.38;3.17;;;23.00;84.50;;;;;;5024887;28;20045;-76
2023/08/18 05:45:20;;;;;;;3.17;2.97;;;22.80;84.80;;;;;;5021688;28;20052;-76
2023/08/18 05:47:46;;;;;;;2.83;2.72;;;22.90;85.30;;;;;;5021123;28;20033;-77
2023/08/18 05:50:11;;;;;;;3.83;3.53;;;22.90;85.10;;;;;;5022919;28;20506;-76
2023/08/18 05:52:37;;;;;;;3.45;3.25;;;22.90;85.30;;;;;;5022799;28;20108;-76
2023/08/18 05:55:04;;;;;;;3.58;3.38;;;22.90;86.10;;;;;;5023537;28;20054;-78
2023/08/18 05:57:30;;;;;;;3.25;3.05;;;22.90;85.40;;;;;;5023883;28;20046;-78
2023/08/18 05:59:55;;;;;;;2.95;2.75;;;22.80;85.50;;;;;;5023936;28;20115;-78
2023/08/18 06:02:21;;;;;;;2.75;2.55;;;22.80;85.50;;;;;;5022462;28;20030;-77
2023/08/18 06:04:46;;;;;;;3.15;2.95;;;22.80;86.00;;;;;;5022817;28;20057;-77
2023/08/18 06:07:12;;;;;;;2.28;2.17;;;22.80;85.60;;;;;;5025700;28;20403;-77
2023/08/18 06:09:38;;;;;;;2.63;2.50;;;22.80;84.40;;;;;;5025297;28;20057;-76
2023/08/18 06:12:03;;;;;;;2.88;1.90;;;22.90;84.10;;;;;;5025951;28;20041;-76
2023/08/18 06:14:29;;;;;;;2.17;2.08;;;22.90;84.20;;;;;;5026140;28;20043;-76
2023/08/18 06:16:54;;;;;;;2.30;2.20;;;22.90;83.30;;;;;;5026131;28;20168;-76
2023/08/18 06:19:20;;;;;;;2.20;2.10;;;22.90;83.20;;;;;;5024955;28;20111;-77
2023/08/18 06:21:46;;;;;;;2.25;2.15;;;22.90;83.20;;;;;;5026718;28;20085;-76
2023/08/18 06:24:11;;;;;;;2.25;2.15;;;23.00;83.10;;;;;;5028265;28;20041;-76
2023/08/18 06:26:37;;;;;;;2.00;1.90;;;23.00;82.90;;;;;;5026039;28;20473;-76
2023/08/18 06:29:02;;;;;;;2.13;2.03;;;23.00;82.80;;;;;;5024335;28;20037;-76
2023/08/18 06:31:28;;;;;;;2.30;1.80;;;22.90;82.40;;;;;;5025968;28;20072;-76
2023/08/18 06:33:55;;;;;;;2.17;2.08;;;23.00;82.60;;;;;;5026180;28;20045;-76
2023/08/18 06:36:20;;;;;;;1.95;1.85;;;23.00;82.40;;;;;;5028046;28;20047;-76
2023/08/18 06:38:46;;;;;;;1.90;1.80;;;23.00;82.20;;;;;;5025507;28;20045;-77
2023/08/18 06:41:12;;;;;;;2.30;2.20;;;23.00;82.10;;;;;;5024914;28;20061;-76
2023/08/18 06:43:37;;;;;;;1.98;1.88;;;23.00;82.00;;;;;;5026193;28;20114;-77
2023/08/18 06:46:04;;;;;;;2.00;1.90;;;23.00;82.10;;;;;;5051961;28;20124;-77
2023/08/18 06:48:30;;;;;;;1.90;1.80;;;23.00;81.80;;;;;;5023379;28;20460;-76
2023/08/18 06:50:55;;;;;;;2.08;1.98;;;23.00;81.70;;;;;;5026967;28;20567;-76
2023/08/18 06:53:21;;;;;;;1.90;1.80;;;23.00;81.70;;;;;;5024366;28;20056;-76
2023/08/18 06:55:46;;;;;;;1.75;1.65;;;23.00;81.50;;;;;;5025530;28;20095;-76
2023/08/18 06:58:12;;;;;;;1.92;1.83;;;23.00;81.40;;;;;;5024654;28;20136;-76
2023/08/18 07:00:38;;;;;;;1.80;1.70;;;23.00;81.30;;;;;;5025635;28;20036;-76
2023/08/18 07:03:04;;;;;;;1.80;1.70;;;23.00;81.20;;;;;;5025284;28;20057;-77
2023/08/18 07:05:29;;;;;;;2.45;1.60;;;23.00;81.20;;;;;;5025733;28;20049;-76
2023/08/18 07:07:55;;;;;;;2.22;2.03;;;23.00;81.20;;;;;;5025057;28;20041;-77
2023/08/18 07:10:21;;;;;;;2.08;1.70;;;23.00;80.90;;;;;;5007723;28;20127;-77
2023/08/18 07:12:46;;;;;;;1.73;1.63;;;23.00;80.90;;;;;;5025256;28;20534;-76
2023/08/18 07:15:12;;;;;;;1.60;1.50;;;23.00;80.80;;;;;;5026582;28;20068;-77
2023/08/18 07:17:37;;;;;;;1.52;1.42;;;23.00;80.90;;;;;;5024230;28;20262;-76
2023/08/18 07:20:10;;;;;;;2.10;2.00;;;23.00;80.70;;;;;;5025278;28;20045;-76
2023/08/18 07:22:35;;;;;;;1.52;1.45;;;23.00;80.70;;;;;;5022862;28;20121;-76
2023/08/18 07:25:04;;;;;;;1.70;1.60;;;23.00;80.60;;;;;;5024275;28;20132;-77
2023/08/18 07:27:29;;;;;;;1.38;1.38;;;23.00;80.60;;;;;;5025355;28;20087;-77
2023/08/18 07:29:55;;;;;;;1.58;1.48;;;23.00;80.80;;;;;;5025952;28;20503;-77
2023/08/18 07:32:20;;;;;;;1.65;1.60;;;23.00;80.50;;;;;;5024624;28;20029;-77
2023/08/18 07:34:46;;;;;;;1.83;1.73;;;23.00;80.50;;;;;;5025438;28;20055;-77
2023/08/18 07:37:12;;;;;;;1.38;1.38;;;23.00;80.40;;;;;;5025566;28;20265;-77
2023/08/18 07:39:37;;;;;;;2.58;1.50;;;23.00;80.40;;;;;;5024264;28;20048;-77
2023/08/18 07:42:03;;;;;;;1.60;1.50;;;23.00;80.60;;;;;;5027376;28;20041;-77
2023/08/18 07:44:29;;;;;;;1.33;1.33;;;23.10;80.30;;;;;;5022054;28;20091;-77
2023/08/18 07:46:54;;;;;;;1.23;1.23;;;23.00;80.20;;;;;;5008356;28;20174;-77
2023/08/18 07:49:21;;;;;;;1.30;1.30;;;23.00;80.10;;;;;;5006879;28;20029;-77
2023/08/18 07:51:46;;;;;;;1.50;1.40;;;23.10;80.20;;;;;;5024317;28;20042;-77
2023/08/18 07:54:12;;;;;;;1.50;1.40;;;23.10;80.10;;;;;;5026272;28;20040;-77
2023/08/18 07:56:37;;;;;;;1.27;1.27;;;23.10;80.10;;;;;;5023883;28;20522;-77
2023/08/18 07:59:03;;;;;;;1.55;1.45;;;23.00;80.90;;;;;;5026254;28;20038;-77
2023/08/18 08:01:29;;;;;;;1.00;1.00;;;23.00;80.10;;;;;;5023939;28;20438;-77
2023/08/18 08:03:55;;;;;;;1.40;1.40;;;23.10;80.10;;;;;;5024666;28;20489;-77
2023/08/18 08:06:21;;;;;;;1.10;1.10;;;23.10;79.90;;;;;;5025208;28;20084;-78
2023/08/18 08:08:46;;;;;;;1.40;1.40;;;23.00;79.80;;;;;;5005669;28;20087;-77
2023/08/18 08:11:12;;;;;;;1.40;1.40;;;23.10;79.80;;;;;;5024664;28;20033;-77
2023/08/18 08:13:38;;;;;;;1.50;1.40;;;23.10;79.80;;;;;;5023598;28;20030;-78
2023/08/18 08:16:03;;;;;;;1.20;1.20;;;23.10;79.80;;;;;;5024848;28;20056;-77
2023/08/18 08:18:29;;;;;;;1.30;1.30;;;23.10;79.90;;;;;;5022860;28;20521;-77
2023/08/18 08:20:55;;;;;;;1.60;1.50;;;23.10;79.90;;;;;;5025554;28;20041;-77
2023/08/18 08:23:20;;;;;;;1.50;1.40;;;23.10;80.00;;;;;;5024265;28;20168;-78
2023/08/18 08:25:47;;;;;;;1.50;1.50;;;23.10;79.90;;;;;;5024025;28;20496;-78
2023/08/18 08:28:13;;;;;;;1.50;1.50;;;23.00;79.90;;;;;;5023444;28;20028;-77
2023/08/18 08:30:44;;;;;;;1.45;1.45;;;23.10;79.80;;;;;;5024466;28;20045;-77
2023/08/18 08:33:13;;;;;;;1.63;1.52;;;23.10;79.80;;;;;;5025465;28;20395;-77
2023/08/18 08:35:38;;;;;;;1.55;1.45;;;23.10;79.90;;;;;;5024153;28;20068;-77
2023/08/18 08:38:04;;;;;;;1.70;1.60;;;23.10;79.80;;;;;;5023940;28;20045;-77
2023/08/18 08:40:30;;;;;;;1.55;1.45;;;23.10;79.90;;;;;;5006326;28;20056;-77
2023/08/18 08:42:56;;;;;;;2.10;1.60;;;23.00;79.90;;;;;;5023363;28;20670;-77
2023/08/18 08:45:23;;;;;;;1.60;1.50;;;23.10;79.90;;;;;;5025164;28;20057;-78
2023/08/18 08:47:48;;;;;;;1.60;1.50;;;23.10;79.90;;;;;;5040481;28;20041;-77
2023/08/18 08:50:16;;;;;;;1.40;1.40;;;23.10;79.90;;;;;;5023036;28;20064;-77
2023/08/18 08:52:41;;;;;;;1.60;1.50;;;23.10;79.80;;;;;;5005177;28;20063;-77
2023/08/18 08:55:07;;;;;;;1.38;1.38;;;23.10;79.80;;;;;;5023618;28;20038;-77
2023/08/18 08:57:33;;;;;;;1.50;1.42;;;23.10;79.80;;;;;;5023158;28;20049;-78
2023/08/18 08:59:59;;;;;;;1.30;1.30;;;23.10;79.90;;;;;;5022799;28;20044;-78
2023/08/18 09:02:24;;;;;;;1.90;1.80;;;23.00;79.80;;;;;;5022778;28;20399;-77
2023/08/18 09:04:50;;;;;;;1.60;1.60;;;23.10;79.70;;;;;;5022761;28;20125;-78
2023/08/18 09:07:16;;;;;;;1.40;1.40;;;23.10;79.80;;;;;;5024027;28;20042;-78
2023/08/18 09:09:41;;;;;;;1.67;1.58;;;23.10;79.70;;;;;;5022962;28;20121;-78
2023/08/18 09:12:08;;;;;;;1.40;1.35;;;23.10;79.80;;;;;;5025826;28;20499;-78
2023/08/18 09:14:34;;;;;;;1.35;1.33;;;23.10;79.60;;;;;;5022964;28;20116;-77
2023/08/18 09:17:00;;;;;;;1.20;1.20;;;23.10;79.80;;;;;;5024275;28;20029;-77
2023/08/18 09:19:26;;;;;;;1.10;1.10;;;23.10;79.60;;;;;;5025292;28;20080;-77
2023/08/18 09:21:51;;;;;;;1.50;1.50;;;23.10;79.40;;;;;;5024446;28;20069;-78
2023/08/18 09:24:20;;;;;;;1.35;1.35;;;23.10;79.60;;;;;;5025174;28;20041;-78
2023/08/18 09:26:46;;;;;;;1.80;1.40;;;23.10;79.60;;;;;;5027841;28;20029;-78
2023/08/18 09:29:11;;;;;;;1.20;1.20;;;23.20;79.50;;;;;;5011073;28;20041;-78
2023/08/18 09:31:37;;;;;;;1.30;1.30;;;23.10;79.30;;;;;;5025938;28;20044;-77
2023/08/18 09:34:03;;;;;;;1.23;1.23;;;23.10;79.40;;;;;;5027026;28;20041;-77
2023/08/18 09:36:30;;;;;;;1.38;1.35;;;23.20;79.30;;;;;;5026222;28;20038;-77
2023/08/18 09:38:56;;;;;;;1.40;1.40;;;23.20;79.30;;;;;;5028047;28;20061;-78
2023/08/18 09:41:21;;;;;;;1.48;1.48;;;23.20;79.20;;;;;;5025914;28;20036;-77
2023/08/18 09:43:48;;;;;;;1.52;1.42;;;23.10;79.10;;;;;;5027268;28;20038;-77
2023/08/18 09:46:16;;;;;;;1.33;1.33;;;23.20;79.10;;;;;;5025516;28;20481;-77
2023/08/18 09:48:43;;;;;;;1.27;1.27;;;23.20;79.20;;;;;;5026820;28;20517;-77
2023/08/18 09:51:09;;;;;;;1.13;1.13;;;23.20;79.10;;;;;;5027357;28;20128;-77
2023/08/18 09:53:36;;;;;;;1.10;1.10;;;23.20;79.10;;;;;;5008643;28;20116;-77
2023/08/18 09:56:23;;;;;;;1.00;1.00;;;23.20;79.10;;;;;;5027391;28;20034;-78
2023/08/18 09:59:04;;;;;;;1.10;1.10;;;23.20;79.00;;;;;;5051954;28;20049;-77
2023/08/18 10:01:30;;;;;;;1.10;1.10;;;23.20;79.00;;;;;;5039374;28;20052;-78
2023/08/18 10:03:58;;;;;;;1.27;1.27;;;23.20;78.90;;;;;;5024596;28;20042;-78
2023/08/18 10:06:23;;;;;;;1.20;1.20;;;23.20;78.90;;;;;;5029326;28;20042;-78
2023/08/18 10:08:50;;;;;;;1.38;1.38;;;23.30;79.00;;;;;;5026852;28;20033;-77
2023/08/18 10:11:15;;;;;;;1.33;1.23;;;23.20;78.80;;;;;;5008667;28;20423;-77
2023/08/18 10:13:41;;;;;;;1.42;1.42;;;23.20;78.80;;;;;;5026037;28;20034;-77
2023/08/18 10:16:06;;;;;;;1.20;1.20;;;23.30;78.70;;;;;;5009459;28;20038;-77
2023/08/18 10:18:32;;;;;;;1.33;1.33;;;23.30;78.80;;;;;;5025487;28;20453;-78
2023/08/18 10:20:58;;;;;;;1.38;1.38;;;23.30;78.70;;;;;;5024793;28;20515;-77
2023/08/18 10:23:24;;;;;;;1.13;1.13;;;23.30;78.90;;;;;;5024623;28;20041;-78
2023/08/18 10:25:51;;;;;;;1.27;1.15;;;23.30;78.70;;;;;;5026804;28;20426;-78
2023/08/18 10:28:20;;;;;;;1.33;1.20;;;23.30;78.60;;;;;;5026800;28;20041;-77
2023/08/18 10:30:57;;;;;;;1.17;1.17;;;23.30;78.50;;;;;;5025059;28;20037;-78
2023/08/18 10:33:35;;;;;;;1.30;1.30;;;23.30;79.20;;;;;;5025284;28;20510;-78
2023/08/18 10:36:02;;;;;;;1.23;1.23;;;23.30;78.50;;;;;;5026239;28;20095;-78
2023/08/18 10:38:29;;;;;;;1.20;1.20;;;23.30;79.20;;;;;;5026965;28;20037;-78
2023/08/18 10:40:54;;;;;;;1.20;1.17;;;23.30;78.40;;;;;;5023771;28;20073;-78
2023/08/18 10:43:20;;;;;;;1.30;1.30;;;23.30;78.40;;;;;;5026554;28;20499;-78
2023/08/18 10:45:56;;;;;;;1.23;1.23;;;23.30;78.40;;;;;;5024183;28;24957;-77
2023/08/18 10:48:22;;;;;;;1.13;1.13;;;23.30;78.40;;;;;;5026252;28;20510;-78
2023/08/18 10:50:47;;;;;;;1.45;1.20;;;23.30;78.40;;;;;;5025328;28;20859;-77
2023/08/18 10:53:13;;;;;;;1.10;1.10;;;23.30;78.40;;;;;;5025655;28;20042;-77
2023/08/18 10:55:39;;;;;;;1.40;1.30;;;23.30;78.30;;;;;;5024731;28;20053;-77
2023/08/18 10:58:05;;;;;;;1.17;1.17;;;23.30;78.30;;;;;;5025896;28;20424;-77
2023/08/18 11:00:35;;;;;;;1.30;1.30;;;23.40;78.30;;;;;;5026850;28;20496;-77
2023/08/18 11:03:00;;;;;;;1.10;1.10;;;23.40;78.20;;;;;;5026220;28;20116;-78
2023/08/18 11:05:26;;;;;;;1.00;1.00;;;23.40;78.20;;;;;;5024288;28;20627;-78
2023/08/18 11:07:52;;;;;;;1.20;1.20;;;23.40;78.20;;;;;;5008237;28;20045;-77
2023/08/18 11:10:21;;;;;;;1.27;1.00;;;23.40;78.20;;;;;;5025009;28;20068;-78
2023/08/18 11:12:48;;;;;;;1.13;1.13;;;23.40;78.20;;;;;;5023856;28;20060;-77
2023/08/18 11:15:14;;;;;;;1.00;1.00;;;23.40;78.10;;;;;;5025972;28;20411;-78
2023/08/18 11:17:40;;;;;;;1.33;1.33;;;23.40;78.10;;;;;;5023917;28;20045;-77
2023/08/18 11:20:16;;;;;;;1.20;1.20;;;23.40;78.10;;;;;;5025684;28;20048;-78
2023/08/18 11:22:44;;;;;;;1.20;1.20;;;23.40;78.10;;;;;;5024645;28;20095;-77
2023/08/18 11:25:14;;;;;;;1.67;1.55;;;23.40;78.80;;;;;;5023301;28;20046;-77
2023/08/18 11:27:40;;;;;;;1.67;1.58;;;23.50;79.80;;;;;;4673059;28;10000226;-78
2023/08/18 11:30:08;;;;;;;1.70;1.60;;;23.50;79.80;;;;;;5023314;28;20068;-78
2023/08/18 11:32:33;;;;;;;1.35;1.35;;;23.50;79.90;;;;;;5019159;28;20491;-78
2023/08/18 11:34:59;;;;;;;1.30;1.30;;;23.50;79.60;;;;;;5018466;28;20045;-78
2023/08/18 11:37:27;;;;;;;1.38;1.27;;;23.50;79.40;;;;;;5001669;28;20471;-78
2023/08/18 11:39:53;;;;;;;1.42;1.33;;;23.50;79.10;;;;;;5019948;28;20107;-78
2023/08/18 11:42:20;;;;;;;1.65;1.55;;;23.50;79.30;;;;;;5018292;28;20045;-79
2023/08/18 11:44:46;;;;;;;1.63;1.58;;;23.50;79.60;;;;;;4979284;28;20041;-78
2023/08/18 11:47:12;;;;;;;1.60;1.50;;;23.50;80.00;;;;;;4623391;28;10000475;-78
2023/08/18 11:49:38;;;;;;;1.60;1.50;;;23.50;79.70;;;;;;4983593;28;20483;-78
2023/08/18 11:52:04;;;;;;;1.52;1.42;;;23.50;79.80;;;;;;4997067;28;20042;-78
2023/08/18 11:54:31;;;;;;;1.80;1.70;;;23.50;79.70;;;;;;5000582;28;20038;-79
2023/08/18 11:56:57;;;;;;;1.50;1.40;;;23.50;79.80;;;;;;4984924;28;20042;-78
2023/08/18 11:59:23;;;;;;;1.60;1.50;;;23.50;79.50;;;;;;4998128;28;20418;-78
2023/08/18 12:02:06;;;;;;;1.58;1.50;;;23.60;79.70;;;;;;5020350;28;20032;-78
2023/08/18 12:04:33;;;;;;;1.40;1.30;;;23.60;79.40;;;;;;5045584;28;20045;-79
2023/08/18 12:06:58;;;;;;;1.65;1.55;;;23.60;80.20;;;;;;5017133;28;20051;-77
2023/08/18 12:09:24;;;;;;;1.38;1.30;;;23.60;79.40;;;;;;5004527;28;20041;-78
2023/08/18 12:11:50;;;;;;;1.15;1.15;;;23.60;79.40;;;;;;5017544;28;20145;-78
2023/08/18 12:14:16;;;;;;;1.38;1.27;;;23.60;79.40;;;;;;5019896;28;20138;-78
2023/08/18 12:16:42;;;;;;;1.40;1.30;;;23.60;79.30;;;;;;5019006;28;20407;-77
2023/08/18 12:19:08;;;;;;;1.50;1.42;;;23.60;79.20;;;;;;4999457;28;20048;-77
2023/08/18 12:21:36;;;;;;;1.50;1.40;;;23.60;79.20;;;;;;5020542;28;20041;-77
2023/08/18 12:24:03;;;;;;;1.13;1.13;;;23.60;79.10;;;;;;5020612;28;20538;-77
2023/08/18 12:26:29;;;;;;;1.42;1.40;;;23.60;79.00;;;;;;5020986;28;20045;-77
2023/08/18 12:28:55;;;;;;;1.30;1.20;;;23.60;79.40;;;;;;5017614;28;20053;-76
2023/08/18 12:31:24;;;;;;;1.40;1.30;;;23.60;79.10;;;;;;5018517;28;20108;-77
2023/08/18 12:33:52;;;;;;;1.77;1.20;;;23.60;78.90;;;;;;5020069;28;20082;-77
2023/08/18 12:36:19;;;;;;;1.30;1.20;;;23.60;79.00;;;;;;5020664;28;20045;-77
2023/08/18 12:38:45;;;;;;;1.15;1.15;;;23.60;78.90;;;;;;5015529;28;20384;-76
2023/08/18 12:41:11;;;;;;;1.30;1.20;;;23.60;79.00;;;;;;5019239;28;20144;-77